sensor_id;sensor_type;location;lat;lon;timestamp;temperature;humidity
4615;DHT22;2320;51.362;6.946;2024-01-27T00:01:35;3.50;99.90
4615;DHT22;2320;51.362;6.946;2024-01-27T00:04:00;3.40;99.90
4615;DHT22;2320;51.362;6.946;2024-01-27T00:06:26;3.30;99.90
4615;DHT22;2320;51.362;6.946;2024-01-27T00:08:52;3.40;99.90
4615;DHT22;2320;51.362;6.946;2024-01-27T00:11:18;3.30;99.90
4615;DHT22;2320;51.362;6.946;2024-01-27T00:13:44;3.30;99.90
4615;DHT22;2320;51.362;6.946;2024-01-27T00:16:10;3.30;99.90
4615;DHT22;2320;51.362;6.946;2024-01-27T00:18:36;3.30;99.90
4615;DHT22;2320;51.362;6.946;2024-01-27T00:21:03;3.20;99.90
4615;DHT22;2320;51.362;6.946;2024-01-27T00:23:29;3.30;99.90
4615;DHT22;2320;51.362;6.946;2024-01-27T00:25:54;3.30;99.90
4615;DHT22;2320;51.362;6.946;2024-01-27T00:28:20;3.30;99.90
4615;DHT22;2320;51.362;6.946;2024-01-27T00:30:45;3.40;99.90
4615;DHT22;2320;51.362;6.946;2024-01-27T00:33:11;3.30;99.90
4615;DHT22;2320;51.362;6.946;2024-01-27T00:35:37;3.30;99.90
4615;DHT22;2320;51.362;6.946;2024-01-27T00:38:02;3.30;99.90
4615;DHT22;2320;51.362;6.946;2024-01-27T00:40:28;3.20;99.90
4615;DHT22;2320;51.362;6.946;2024-01-27T00:42:54;3.40;99.90
4615;DHT22;2320;51.362;6.946;2024-01-27T00:45:20;3.20;99.90
4615;DHT22;2320;51.362;6.946;2024-01-27T00:47:51;3.10;99.90
4615;DHT22;2320;51.362;6.946;2024-01-27T00:50:16;3.10;99.90
4615;DHT22;2320;51.362;6.946;2024-01-27T00:52:42;3.20;99.90
4615;DHT22;2320;51.362;6.946;2024-01-27T00:55:08;3.30;99.90
4615;DHT22;2320;51.362;6.946;2024-01-27T00:57:36;3.20;99.90
4615;DHT22;2320;51.362;6.946;2024-01-27T01:00:07;3.20;99.90
4615;DHT22;2320;51.362;6.946;2024-01-27T01:02:34;3.10;99.90
4615;DHT22;2320;51.362;6.946;2024-01-27T01:04:59;3.10;99.90
4615;DHT22;2320;51.362;6.946;2024-01-27T01:07:25;3.10;99.90
4615;DHT22;2320;51.362;6.946;2024-01-27T01:09:51;3.10;99.90
4615;DHT22;2320;51.362;6.946;2024-01-27T01:12:16;3.00;99.90
4615;DHT22;2320;51.362;6.946;2024-01-27T01:14:43;3.00;99.90
4615;DHT22;2320;51.362;6.946;2024-01-27T01:17:09;2.90;99.90
4615;DHT22;2320;51.362;6.946;2024-01-27T01:19:36;2.90;99.90
4615;DHT22;2320;51.362;6.946;2024-01-27T01:22:01;2.90;99.90
4615;DHT22;2320;51.362;6.946;2024-01-27T01:24:27;2.80;99.90
4615;DHT22;2320;51.362;6.946;2024-01-27T01:26:52;2.90;99.90
4615;DHT22;2320;51.362;6.946;2024-01-27T01:29:18;2.80;99.90
4615;DHT22;2320;51.362;6.946;2024-01-27T01:31:43;2.90;99.90
4615;DHT22;2320;51.362;6.946;2024-01-27T01:34:09;2.90;99.90
4615;DHT22;2320;51.362;6.946;2024-01-27T01:36:35;2.90;99.90
4615;DHT22;2320;51.362;6.946;2024-01-27T01:39:00;3.00;99.90
4615;DHT22;2320;51.362;6.946;2024-01-27T01:41:26;3.00;99.90
4615;DHT22;2320;51.362;6.946;2024-01-27T01:43:51;3.00;99.90
4615;DHT22;2320;51.362;6.946;2024-01-27T01:46:17;3.00;99.90
4615;DHT22;2320;51.362;6.946;2024-01-27T01:48:44;2.90;99.90
4615;DHT22;2320;51.362;6.946;2024-01-27T01:51:10;2.90;99.90
4615;DHT22;2320;51.362;6.946;2024-01-27T01:53:36;3.00;99.90
4615;DHT22;2320;51.362;6.946;2024-01-27T01:56:02;2.90;99.90
4615;DHT22;2320;51.362;6.946;2024-01-27T01:58:28;2.90;99.90
4615;DHT22;2320;51.362;6.946;2024-01-27T02:01:00;2.90;99.90
4615;DHT22;2320;51.362;6.946;2024-01-27T02:03:26;2.90;99.90
4615;DHT22;2320;51.362;6.946;2024-01-27T02:05:51;2.90;99.90
4615;DHT22;2320;51.362;6.946;2024-01-27T02:08:17;2.90;99.90
4615;DHT22;2320;51.362;6.946;2024-01-27T02:10:43;2.80;99.90
4615;DHT22;2320;51.362;6.946;2024-01-27T02:13:18;2.80;99.90
4615;DHT22;2320;51.362;6.946;2024-01-27T02:15:44;2.70;99.90
4615;DHT22;2320;51.362;6.946;2024-01-27T02:18:10;2.80;99.90
4615;DHT22;2320;51.362;6.946;2024-01-27T02:20:35;2.80;99.90
4615;DHT22;2320;51.362;6.946;2024-01-27T02:23:02;3.00;99.90
4615;DHT22;2320;51.362;6.946;2024-01-27T02:25:30;2.90;99.90
4615;DHT22;2320;51.362;6.946;2024-01-27T02:27:56;3.00;99.90
4615;DHT22;2320;51.362;6.946;2024-01-27T02:30:21;3.10;99.90
4615;DHT22;2320;51.362;6.946;2024-01-27T02:32:47;3.00;99.90
4615;DHT22;2320;51.362;6.946;2024-01-27T02:35:12;3.00;99.90
4615;DHT22;2320;51.362;6.946;2024-01-27T02:37:40;3.10;99.90
4615;DHT22;2320;51.362;6.946;2024-01-27T02:40:06;3.00;99.90
4615;DHT22;2320;51.362;6.946;2024-01-27T02:42:32;2.90;99.90
4615;DHT22;2320;51.362;6.946;2024-01-27T02:44:58;2.80;99.90
4615;DHT22;2320;51.362;6.946;2024-01-27T02:47:23;2.90;99.90
4615;DHT22;2320;51.362;6.946;2024-01-27T02:49:49;2.80;99.90
4615;DHT22;2320;51.362;6.946;2024-01-27T02:52:14;2.80;99.90
4615;DHT22;2320;51.362;6.946;2024-01-27T02:54:40;2.70;99.90
4615;DHT22;2320;51.362;6.946;2024-01-27T02:57:06;2.60;99.90
4615;DHT22;2320;51.362;6.946;2024-01-27T02:59:31;2.70;99.90
4615;DHT22;2320;51.362;6.946;2024-01-27T03:01:57;2.80;99.90
4615;DHT22;2320;51.362;6.946;2024-01-27T03:04:22;2.80;99.90
4615;DHT22;2320;51.362;6.946;2024-01-27T03:06:48;2.70;99.90
4615;DHT22;2320;51.362;6.946;2024-01-27T03:09:13;2.80;99.90
4615;DHT22;2320;51.362;6.946;2024-01-27T03:11:39;2.80;99.90
4615;DHT22;2320;51.362;6.946;2024-01-27T03:14:05;2.70;99.90
4615;DHT22;2320;51.362;6.946;2024-01-27T03:16:30;2.70;99.90
4615;DHT22;2320;51.362;6.946;2024-01-27T03:18:56;2.70;99.90
4615;DHT22;2320;51.362;6.946;2024-01-27T03:21:22;2.60;99.90
4615;DHT22;2320;51.362;6.946;2024-01-27T03:23:47;2.70;99.90
4615;DHT22;2320;51.362;6.946;2024-01-27T03:26:13;2.70;99.90
4615;DHT22;2320;51.362;6.946;2024-01-27T03:28:38;2.60;99.90
4615;DHT22;2320;51.362;6.946;2024-01-27T03:31:04;2.50;99.90
4615;DHT22;2320;51.362;6.946;2024-01-27T03:33:29;2.60;99.90
4615;DHT22;2320;51.362;6.946;2024-01-27T03:35:56;2.40;99.90
4615;DHT22;2320;51.362;6.946;2024-01-27T03:38:21;2.50;99.90
4615;DHT22;2320;51.362;6.946;2024-01-27T03:40:47;2.50;99.90
4615;DHT22;2320;51.362;6.946;2024-01-27T03:43:13;2.50;99.90
4615;DHT22;2320;51.362;6.946;2024-01-27T03:45:39;2.60;99.90
4615;DHT22;2320;51.362;6.946;2024-01-27T03:48:05;2.40;99.90
4615;DHT22;2320;51.362;6.946;2024-01-27T03:50:30;2.40;99.90
4615;DHT22;2320;51.362;6.946;2024-01-27T03:52:56;2.40;99.90
4615;DHT22;2320;51.362;6.946;2024-01-27T03:55:21;2.40;99.90
4615;DHT22;2320;51.362;6.946;2024-01-27T03:57:47;2.30;99.90
4615;DHT22;2320;51.362;6.946;2024-01-27T04:00:13;2.40;99.90
4615;DHT22;2320;51.362;6.946;2024-01-27T04:02:38;2.40;99.90
4615;DHT22;2320;51.362;6.946;2024-01-27T04:05:05;2.40;99.90
4615;DHT22;2320;51.362;6.946;2024-01-27T04:07:31;2.40;99.90
4615;DHT22;2320;51.362;6.946;2024-01-27T04:09:56;2.50;99.90
4615;DHT22;2320;51.362;6.946;2024-01-27T04:12:22;2.70;99.90
4615;DHT22;2320;51.362;6.946;2024-01-27T04:14:47;2.70;99.90
4615;DHT22;2320;51.362;6.946;2024-01-27T04:17:13;2.50;99.90
4615;DHT22;2320;51.362;6.946;2024-01-27T04:19:38;2.40;99.90
4615;DHT22;2320;51.362;6.946;2024-01-27T04:22:04;2.40;99.90
4615;DHT22;2320;51.362;6.946;2024-01-27T04:24:30;2.50;99.90
4615;DHT22;2320;51.362;6.946;2024-01-27T04:26:55;2.50;99.90
4615;DHT22;2320;51.362;6.946;2024-01-27T04:29:21;2.30;99.90
4615;DHT22;2320;51.362;6.946;2024-01-27T04:31:46;2.30;99.90
4615;DHT22;2320;51.362;6.946;2024-01-27T04:34:12;2.40;99.90
4615;DHT22;2320;51.362;6.946;2024-01-27T04:36:37;2.50;99.90
4615;DHT22;2320;51.362;6.946;2024-01-27T04:39:03;2.30;99.90
4615;DHT22;2320;51.362;6.946;2024-01-27T04:41:29;2.30;99.90
4615;DHT22;2320;51.362;6.946;2024-01-27T04:43:55;2.10;99.90
4615;DHT22;2320;51.362;6.946;2024-01-27T04:46:22;2.10;99.90
4615;DHT22;2320;51.362;6.946;2024-01-27T04:48:48;2.20;99.90
4615;DHT22;2320;51.362;6.946;2024-01-27T04:51:13;2.20;99.90
4615;DHT22;2320;51.362;6.946;2024-01-27T04:53:39;2.20;99.90
4615;DHT22;2320;51.362;6.946;2024-01-27T04:56:05;2.40;99.90
4615;DHT22;2320;51.362;6.946;2024-01-27T04:58:36;2.20;99.90
4615;DHT22;2320;51.362;6.946;2024-01-27T05:01:02;2.40;99.90
4615;DHT22;2320;51.362;6.946;2024-01-27T05:03:28;2.40;99.90
4615;DHT22;2320;51.362;6.946;2024-01-27T05:05:54;2.40;99.90
4615;DHT22;2320;51.362;6.946;2024-01-27T05:08:19;2.20;99.90
4615;DHT22;2320;51.362;6.946;2024-01-27T05:10:45;2.30;99.90
4615;DHT22;2320;51.362;6.946;2024-01-27T05:13:10;2.40;99.90
4615;DHT22;2320;51.362;6.946;2024-01-27T05:15:36;2.40;99.90
4615;DHT22;2320;51.362;6.946;2024-01-27T05:18:02;2.30;99.90
4615;DHT22;2320;51.362;6.946;2024-01-27T05:20:27;2.30;99.90
4615;DHT22;2320;51.362;6.946;2024-01-27T05:22:53;2.20;99.90
4615;DHT22;2320;51.362;6.946;2024-01-27T05:25:18;2.10;99.90
4615;DHT22;2320;51.362;6.946;2024-01-27T05:27:44;2.20;99.90
4615;DHT22;2320;51.362;6.946;2024-01-27T05:30:10;2.20;99.90
4615;DHT22;2320;51.362;6.946;2024-01-27T05:32:36;2.30;99.90
4615;DHT22;2320;51.362;6.946;2024-01-27T05:35:01;2.40;99.90
4615;DHT22;2320;51.362;6.946;2024-01-27T05:37:28;2.50;99.90
4615;DHT22;2320;51.362;6.946;2024-01-27T05:39:54;2.30;99.90
4615;DHT22;2320;51.362;6.946;2024-01-27T05:42:19;2.30;99.90
4615;DHT22;2320;51.362;6.946;2024-01-27T05:44:45;2.40;99.90
4615;DHT22;2320;51.362;6.946;2024-01-27T05:47:11;2.40;99.90
4615;DHT22;2320;51.362;6.946;2024-01-27T05:49:36;2.50;99.90
4615;DHT22;2320;51.362;6.946;2024-01-27T05:52:02;2.50;99.90
4615;DHT22;2320;51.362;6.946;2024-01-27T05:54:28;2.30;99.90
4615;DHT22;2320;51.362;6.946;2024-01-27T05:56:53;2.20;99.90
4615;DHT22;2320;51.362;6.946;2024-01-27T05:59:19;2.20;99.90
4615;DHT22;2320;51.362;6.946;2024-01-27T06:01:45;2.20;99.90
4615;DHT22;2320;51.362;6.946;2024-01-27T06:04:11;2.00;99.90
4615;DHT22;2320;51.362;6.946;2024-01-27T06:06:39;2.10;99.90
4615;DHT22;2320;51.362;6.946;2024-01-27T06:09:05;2.20;99.90
4615;DHT22;2320;51.362;6.946;2024-01-27T06:11:31;2.10;99.90
4615;DHT22;2320;51.362;6.946;2024-01-27T06:13:57;2.00;99.90
4615;DHT22;2320;51.362;6.946;2024-01-27T06:16:23;2.00;99.90
4615;DHT22;2320;51.362;6.946;2024-01-27T06:18:49;1.90;99.90
4615;DHT22;2320;51.362;6.946;2024-01-27T06:21:15;1.80;99.90
4615;DHT22;2320;51.362;6.946;2024-01-27T06:23:40;1.90;99.90
4615;DHT22;2320;51.362;6.946;2024-01-27T06:26:06;1.80;99.90
4615;DHT22;2320;51.362;6.946;2024-01-27T06:28:32;1.70;99.90
4615;DHT22;2320;51.362;6.946;2024-01-27T06:31:03;1.70;99.90
4615;DHT22;2320;51.362;6.946;2024-01-27T06:33:28;1.60;99.90
4615;DHT22;2320;51.362;6.946;2024-01-27T06:35:54;1.60;99.90
4615;DHT22;2320;51.362;6.946;2024-01-27T06:38:19;1.60;99.90
4615;DHT22;2320;51.362;6.946;2024-01-27T06:40:45;1.60;99.90
4615;DHT22;2320;51.362;6.946;2024-01-27T06:43:12;1.60;99.90
4615;DHT22;2320;51.362;6.946;2024-01-27T06:45:38;1.70;99.90
4615;DHT22;2320;51.362;6.946;2024-01-27T06:48:05;1.60;99.90
4615;DHT22;2320;51.362;6.946;2024-01-27T06:50:30;1.60;99.90
4615;DHT22;2320;51.362;6.946;2024-01-27T06:52:56;1.60;99.90
4615;DHT22;2320;51.362;6.946;2024-01-27T06:55:21;1.50;99.90
4615;DHT22;2320;51.362;6.946;2024-01-27T06:57:47;1.40;99.90
4615;DHT22;2320;51.362;6.946;2024-01-27T07:00:13;1.50;99.90
4615;DHT22;2320;51.362;6.946;2024-01-27T07:02:42;1.60;99.90
4615;DHT22;2320;51.362;6.946;2024-01-27T07:05:08;1.50;99.90
4615;DHT22;2320;51.362;6.946;2024-01-27T07:07:34;1.50;99.90
4615;DHT22;2320;51.362;6.946;2024-01-27T07:10:00;1.60;99.90
4615;DHT22;2320;51.362;6.946;2024-01-27T07:12:26;1.60;99.90
4615;DHT22;2320;51.362;6.946;2024-01-27T07:14:52;1.60;99.90
4615;DHT22;2320;51.362;6.946;2024-01-27T07:17:18;1.60;99.90
4615;DHT22;2320;51.362;6.946;2024-01-27T07:19:43;1.50;99.90
4615;DHT22;2320;51.362;6.946;2024-01-27T07:22:09;1.70;99.90
4615;DHT22;2320;51.362;6.946;2024-01-27T07:24:35;1.60;99.90
4615;DHT22;2320;51.362;6.946;2024-01-27T07:27:01;1.80;99.90
4615;DHT22;2320;51.362;6.946;2024-01-27T07:29:27;1.80;99.90
4615;DHT22;2320;51.362;6.946;2024-01-27T07:31:53;1.80;99.90
4615;DHT22;2320;51.362;6.946;2024-01-27T07:34:19;1.70;99.90
4615;DHT22;2320;51.362;6.946;2024-01-27T07:36:44;1.70;99.90
4615;DHT22;2320;51.362;6.946;2024-01-27T07:39:10;1.80;99.90
4615;DHT22;2320;51.362;6.946;2024-01-27T07:41:36;1.90;99.90
4615;DHT22;2320;51.362;6.946;2024-01-27T07:44:09;2.00;99.90
4615;DHT22;2320;51.362;6.946;2024-01-27T07:46:36;2.10;99.90
4615;DHT22;2320;51.362;6.946;2024-01-27T07:49:01;2.20;99.90
4615;DHT22;2320;51.362;6.946;2024-01-27T07:51:28;2.20;99.90
4615;DHT22;2320;51.362;6.946;2024-01-27T07:53:54;2.20;99.90
4615;DHT22;2320;51.362;6.946;2024-01-27T07:56:19;2.30;99.90
4615;DHT22;2320;51.362;6.946;2024-01-27T07:58:45;2.30;99.90
4615;DHT22;2320;51.362;6.946;2024-01-27T08:01:14;2.60;99.90
4615;DHT22;2320;51.362;6.946;2024-01-27T08:03:40;2.90;99.90
4615;DHT22;2320;51.362;6.946;2024-01-27T08:06:06;3.50;99.90
4615;DHT22;2320;51.362;6.946;2024-01-27T08:08:35;4.00;99.90
4615;DHT22;2320;51.362;6.946;2024-01-27T08:11:01;4.70;99.90
4615;DHT22;2320;51.362;6.946;2024-01-27T08:13:26;5.40;99.90
4615;DHT22;2320;51.362;6.946;2024-01-27T08:15:52;5.90;99.90
4615;DHT22;2320;51.362;6.946;2024-01-27T08:18:17;6.40;99.90
4615;DHT22;2320;51.362;6.946;2024-01-27T08:20:43;7.00;99.90
4615;DHT22;2320;51.362;6.946;2024-01-27T08:23:08;7.50;99.90
4615;DHT22;2320;51.362;6.946;2024-01-27T08:25:34;8.10;99.90
4615;DHT22;2320;51.362;6.946;2024-01-27T08:28:00;8.50;99.90
4615;DHT22;2320;51.362;6.946;2024-01-27T08:30:25;8.90;99.90
4615;DHT22;2320;51.362;6.946;2024-01-27T08:32:51;9.10;99.90
4615;DHT22;2320;51.362;6.946;2024-01-27T08:35:16;9.40;99.90
4615;DHT22;2320;51.362;6.946;2024-01-27T08:37:42;9.60;99.90
4615;DHT22;2320;51.362;6.946;2024-01-27T08:40:08;9.80;99.90
4615;DHT22;2320;51.362;6.946;2024-01-27T08:42:34;9.70;99.90
4615;DHT22;2320;51.362;6.946;2024-01-27T08:45:00;9.20;99.90
4615;DHT22;2320;51.362;6.946;2024-01-27T08:47:25;9.20;99.90
4615;DHT22;2320;51.362;6.946;2024-01-27T08:49:51;9.60;99.90
4615;DHT22;2320;51.362;6.946;2024-01-27T08:52:16;10.00;99.90
4615;DHT22;2320;51.362;6.946;2024-01-27T08:54:42;10.40;99.90
4615;DHT22;2320;51.362;6.946;2024-01-27T08:57:07;10.30;99.90
4615;DHT22;2320;51.362;6.946;2024-01-27T08:59:33;10.50;99.90
4615;DHT22;2320;51.362;6.946;2024-01-27T09:01:59;11.00;99.90
4615;DHT22;2320;51.362;6.946;2024-01-27T09:04:25;11.30;99.90
4615;DHT22;2320;51.362;6.946;2024-01-27T09:06:50;11.50;99.90
4615;DHT22;2320;51.362;6.946;2024-01-27T09:09:16;11.40;99.90
4615;DHT22;2320;51.362;6.946;2024-01-27T09:11:42;11.90;99.90
4615;DHT22;2320;51.362;6.946;2024-01-27T09:14:08;12.30;99.90
4615;DHT22;2320;51.362;6.946;2024-01-27T09:16:33;12.60;99.90
4615;DHT22;2320;51.362;6.946;2024-01-27T09:18:59;12.50;99.90
4615;DHT22;2320;51.362;6.946;2024-01-27T09:21:25;12.80;99.90
4615;DHT22;2320;51.362;6.946;2024-01-27T09:23:54;12.70;99.90
4615;DHT22;2320;51.362;6.946;2024-01-27T09:26:20;12.80;99.90
4615;DHT22;2320;51.362;6.946;2024-01-27T09:28:46;13.10;99.90
4615;DHT22;2320;51.362;6.946;2024-01-27T09:31:22;13.00;99.90
4615;DHT22;2320;51.362;6.946;2024-01-27T09:33:51;12.70;99.90
4615;DHT22;2320;51.362;6.946;2024-01-27T09:36:18;13.20;99.90
4615;DHT22;2320;51.362;6.946;2024-01-27T09:38:43;13.70;99.90
4615;DHT22;2320;51.362;6.946;2024-01-27T09:41:10;13.40;99.90
4615;DHT22;2320;51.362;6.946;2024-01-27T09:43:37;12.90;99.90
4615;DHT22;2320;51.362;6.946;2024-01-27T09:46:05;11.90;99.90
4615;DHT22;2320;51.362;6.946;2024-01-27T09:48:32;11.00;99.90
4615;DHT22;2320;51.362;6.946;2024-01-27T09:50:58;10.40;99.90
4615;DHT22;2320;51.362;6.946;2024-01-27T09:53:24;10.00;99.90
4615;DHT22;2320;51.362;6.946;2024-01-27T09:55:50;9.50;99.90
4615;DHT22;2320;51.362;6.946;2024-01-27T09:58:16;8.90;99.90
4615;DHT22;2320;51.362;6.946;2024-01-27T10:00:43;8.60;99.90
4615;DHT22;2320;51.362;6.946;2024-01-27T10:03:09;8.60;99.90
4615;DHT22;2320;51.362;6.946;2024-01-27T10:05:35;8.30;99.90
4615;DHT22;2320;51.362;6.946;2024-01-27T10:08:01;8.30;99.90
4615;DHT22;2320;51.362;6.946;2024-01-27T10:10:31;8.00;99.90
4615;DHT22;2320;51.362;6.946;2024-01-27T10:12:58;7.90;99.90
4615;DHT22;2320;51.362;6.946;2024-01-27T10:15:26;8.00;99.90
4615;DHT22;2320;51.362;6.946;2024-01-27T10:17:52;7.90;99.90
4615;DHT22;2320;51.362;6.946;2024-01-27T10:20:18;8.00;99.90
4615;DHT22;2320;51.362;6.946;2024-01-27T10:22:44;7.90;99.90
4615;DHT22;2320;51.362;6.946;2024-01-27T10:25:11;7.80;99.90
4615;DHT22;2320;51.362;6.946;2024-01-27T10:27:37;7.90;99.90
4615;DHT22;2320;51.362;6.946;2024-01-27T10:30:04;7.80;99.90
4615;DHT22;2320;51.362;6.946;2024-01-27T10:32:32;7.90;99.90
4615;DHT22;2320;51.362;6.946;2024-01-27T10:35:02;8.00;99.90
4615;DHT22;2320;51.362;6.946;2024-01-27T10:37:28;8.00;99.90
4615;DHT22;2320;51.362;6.946;2024-01-27T10:40:04;7.90;99.90
4615;DHT22;2320;51.362;6.946;2024-01-27T10:42:30;7.80;99.90
4615;DHT22;2320;51.362;6.946;2024-01-27T10:44:59;7.80;99.90
4615;DHT22;2320;51.362;6.946;2024-01-27T10:47:29;7.80;99.90
4615;DHT22;2320;51.362;6.946;2024-01-27T10:49:57;7.70;99.90
4615;DHT22;2320;51.362;6.946;2024-01-27T10:52:29;7.70;99.90
4615;DHT22;2320;51.362;6.946;2024-01-27T10:55:00;7.70;99.90
4615;DHT22;2320;51.362;6.946;2024-01-27T10:57:26;7.60;99.90
4615;DHT22;2320;51.362;6.946;2024-01-27T10:59:56;7.50;99.90
4615;DHT22;2320;51.362;6.946;2024-01-27T11:02:23;7.40;99.90
4615;DHT22;2320;51.362;6.946;2024-01-27T11:04:49;7.40;99.90
4615;DHT22;2320;51.362;6.946;2024-01-27T11:07:17;7.40;99.90
4615;DHT22;2320;51.362;6.946;2024-01-27T11:09:44;7.40;99.90
4615;DHT22;2320;51.362;6.946;2024-01-27T11:12:11;7.40;99.90
4615;DHT22;2320;51.362;6.946;2024-01-27T11:14:37;7.40;99.90
4615;DHT22;2320;51.362;6.946;2024-01-27T11:17:03;7.40;99.90
4615;DHT22;2320;51.362;6.946;2024-01-27T11:19:28;7.40;99.90
4615;DHT22;2320;51.362;6.946;2024-01-27T11:22:03;7.40;99.90
4615;DHT22;2320;51.362;6.946;2024-01-27T11:24:29;7.40;99.90
4615;DHT22;2320;51.362;6.946;2024-01-27T11:27:03;7.40;99.90
4615;DHT22;2320;51.362;6.946;2024-01-27T11:29:28;7.50;99.90
4615;DHT22;2320;51.362;6.946;2024-01-27T11:31:55;7.50;99.90
4615;DHT22;2320;51.362;6.946;2024-01-27T11:34:21;7.50;99.90
4615;DHT22;2320;51.362;6.946;2024-01-27T11:36:47;7.50;99.90
4615;DHT22;2320;51.362;6.946;2024-01-27T11:39:29;7.60;99.90
4615;DHT22;2320;51.362;6.946;2024-01-27T11:42:09;7.70;99.90
4615;DHT22;2320;51.362;6.946;2024-01-27T11:44:38;7.70;99.90
4615;DHT22;2320;51.362;6.946;2024-01-27T11:47:05;7.70;99.90
4615;DHT22;2320;51.362;6.946;2024-01-27T11:49:30;7.70;99.90
4615;DHT22;2320;51.362;6.946;2024-01-27T11:51:56;7.70;99.90
4615;DHT22;2320;51.362;6.946;2024-01-27T11:54:22;7.70;99.90
4615;DHT22;2320;51.362;6.946;2024-01-27T11:56:47;7.70;99.90
4615;DHT22;2320;51.362;6.946;2024-01-27T11:59:15;7.80;99.90
4615;DHT22;2320;51.362;6.946;2024-01-27T12:01:40;7.80;99.90
4615;DHT22;2320;51.362;6.946;2024-01-27T12:04:06;7.80;99.90
4615;DHT22;2320;51.362;6.946;2024-01-27T12:06:32;7.80;99.90
4615;DHT22;2320;51.362;6.946;2024-01-27T12:08:58;7.90;99.90
4615;DHT22;2320;51.362;6.946;2024-01-27T12:11:24;7.90;99.90
4615;DHT22;2320;51.362;6.946;2024-01-27T12:13:51;8.00;99.90
4615;DHT22;2320;51.362;6.946;2024-01-27T12:16:17;7.90;99.90
4615;DHT22;2320;51.362;6.946;2024-01-27T12:18:44;8.00;99.90
4615;DHT22;2320;51.362;6.946;2024-01-27T12:21:10;8.00;99.90
4615;DHT22;2320;51.362;6.946;2024-01-27T12:23:35;8.00;99.90
4615;DHT22;2320;51.362;6.946;2024-01-27T12:26:01;8.00;99.90
4615;DHT22;2320;51.362;6.946;2024-01-27T12:28:27;8.00;99.90
4615;DHT22;2320;51.362;6.946;2024-01-27T12:30:53;8.10;99.90
4615;DHT22;2320;51.362;6.946;2024-01-27T12:33:19;8.10;99.90
4615;DHT22;2320;51.362;6.946;2024-01-27T12:35:49;8.10;99.90
4615;DHT22;2320;51.362;6.946;2024-01-27T12:38:15;8.10;99.90
4615;DHT22;2320;51.362;6.946;2024-01-27T12:40:42;8.10;99.90
4615;DHT22;2320;51.362;6.946;2024-01-27T12:43:08;8.10;99.90
4615;DHT22;2320;51.362;6.946;2024-01-27T12:45:34;8.20;99.90
4615;DHT22;2320;51.362;6.946;2024-01-27T12:48:00;8.20;99.90
4615;DHT22;2320;51.362;6.946;2024-01-27T12:50:27;8.20;99.90
4615;DHT22;2320;51.362;6.946;2024-01-27T12:52:53;8.20;99.90
4615;DHT22;2320;51.362;6.946;2024-01-27T12:55:19;8.20;99.90
4615;DHT22;2320;51.362;6.946;2024-01-27T12:57:46;8.30;99.90
4615;DHT22;2320;51.362;6.946;2024-01-27T13:00:12;8.30;99.90
4615;DHT22;2320;51.362;6.946;2024-01-27T13:02:40;8.20;99.90
4615;DHT22;2320;51.362;6.946;2024-01-27T13:05:05;8.30;99.90
4615;DHT22;2320;51.362;6.946;2024-01-27T13:07:32;8.30;99.90
4615;DHT22;2320;51.362;6.946;2024-01-27T13:09:57;8.20;99.90
4615;DHT22;2320;51.362;6.946;2024-01-27T13:12:23;8.20;99.90
4615;DHT22;2320;51.362;6.946;2024-01-27T13:14:49;8.30;99.90
4615;DHT22;2320;51.362;6.946;2024-01-27T13:17:14;8.20;99.90
4615;DHT22;2320;51.362;6.946;2024-01-27T13:19:41;8.20;99.90
4615;DHT22;2320;51.362;6.946;2024-01-27T13:22:07;8.30;99.90
4615;DHT22;2320;51.362;6.946;2024-01-27T13:24:33;8.30;99.90
4615;DHT22;2320;51.362;6.946;2024-01-27T13:26:59;8.30;99.90
4615;DHT22;2320;51.362;6.946;2024-01-27T13:29:25;8.30;99.90
4615;DHT22;2320;51.362;6.946;2024-01-27T13:31:52;8.40;99.90
4615;DHT22;2320;51.362;6.946;2024-01-27T13:34:18;8.30;99.90
4615;DHT22;2320;51.362;6.946;2024-01-27T13:36:44;8.40;99.90
4615;DHT22;2320;51.362;6.946;2024-01-27T13:39:09;8.40;99.90
4615;DHT22;2320;51.362;6.946;2024-01-27T13:41:35;8.40;99.90
4615;DHT22;2320;51.362;6.946;2024-01-27T13:44:00;8.30;99.90
4615;DHT22;2320;51.362;6.946;2024-01-27T13:46:26;8.30;99.90
4615;DHT22;2320;51.362;6.946;2024-01-27T13:48:53;8.30;99.90
4615;DHT22;2320;51.362;6.946;2024-01-27T13:51:19;8.30;99.90
4615;DHT22;2320;51.362;6.946;2024-01-27T13:53:44;8.20;99.90
4615;DHT22;2320;51.362;6.946;2024-01-27T13:56:10;8.20;99.90
4615;DHT22;2320;51.362;6.946;2024-01-27T13:58:36;8.20;99.90
4615;DHT22;2320;51.362;6.946;2024-01-27T14:01:02;8.10;99.90
4615;DHT22;2320;51.362;6.946;2024-01-27T14:03:28;8.10;99.90
4615;DHT22;2320;51.362;6.946;2024-01-27T14:05:54;8.10;99.90
4615;DHT22;2320;51.362;6.946;2024-01-27T14:08:20;8.10;99.90
4615;DHT22;2320;51.362;6.946;2024-01-27T14:10:45;8.10;99.90
4615;DHT22;2320;51.362;6.946;2024-01-27T14:13:13;8.10;99.90
4615;DHT22;2320;51.362;6.946;2024-01-27T14:15:39;8.10;99.90
4615;DHT22;2320;51.362;6.946;2024-01-27T14:18:05;8.10;99.90
4615;DHT22;2320;51.362;6.946;2024-01-27T14:20:35;8.10;99.90
4615;DHT22;2320;51.362;6.946;2024-01-27T14:23:03;8.10;99.90
4615;DHT22;2320;51.362;6.946;2024-01-27T14:25:28;8.10;99.90
4615;DHT22;2320;51.362;6.946;2024-01-27T14:27:54;8.10;99.90
4615;DHT22;2320;51.362;6.946;2024-01-27T14:30:20;8.10;99.90
4615;DHT22;2320;51.362;6.946;2024-01-27T14:32:46;8.00;99.90
4615;DHT22;2320;51.362;6.946;2024-01-27T14:35:12;8.10;99.90
4615;DHT22;2320;51.362;6.946;2024-01-27T14:37:37;8.10;99.90
4615;DHT22;2320;51.362;6.946;2024-01-27T14:40:04;8.10;99.90
4615;DHT22;2320;51.362;6.946;2024-01-27T14:42:33;8.00;99.90
4615;DHT22;2320;51.362;6.946;2024-01-27T14:45:01;8.00;99.90
4615;DHT22;2320;51.362;6.946;2024-01-27T14:47:27;8.00;99.90
4615;DHT22;2320;51.362;6.946;2024-01-27T14:49:53;8.00;99.90
4615;DHT22;2320;51.362;6.946;2024-01-27T14:52:18;8.00;99.90
4615;DHT22;2320;51.362;6.946;2024-01-27T14:54:45;8.10;99.90
4615;DHT22;2320;51.362;6.946;2024-01-27T14:57:10;8.00;99.90
4615;DHT22;2320;51.362;6.946;2024-01-27T14:59:36;8.00;99.90
4615;DHT22;2320;51.362;6.946;2024-01-27T15:02:04;8.10;99.90
4615;DHT22;2320;51.362;6.946;2024-01-27T15:04:30;8.10;99.90
4615;DHT22;2320;51.362;6.946;2024-01-27T15:06:56;8.00;99.90
4615;DHT22;2320;51.362;6.946;2024-01-27T15:09:23;8.10;99.90
4615;DHT22;2320;51.362;6.946;2024-01-27T15:11:49;8.20;99.90
4615;DHT22;2320;51.362;6.946;2024-01-27T15:14:15;8.10;99.90
4615;DHT22;2320;51.362;6.946;2024-01-27T15:16:40;8.10;99.90
4615;DHT22;2320;51.362;6.946;2024-01-27T15:19:06;8.00;99.90
4615;DHT22;2320;51.362;6.946;2024-01-27T15:21:32;8.00;99.90
4615;DHT22;2320;51.362;6.946;2024-01-27T15:23:58;7.90;99.90
4615;DHT22;2320;51.362;6.946;2024-01-27T15:26:24;7.90;99.90
4615;DHT22;2320;51.362;6.946;2024-01-27T15:28:49;8.00;99.90
4615;DHT22;2320;51.362;6.946;2024-01-27T15:31:16;7.90;99.90
4615;DHT22;2320;51.362;6.946;2024-01-27T15:33:41;7.80;99.90
4615;DHT22;2320;51.362;6.946;2024-01-27T15:36:08;7.80;99.90
4615;DHT22;2320;51.362;6.946;2024-01-27T15:38:33;7.80;99.90
4615;DHT22;2320;51.362;6.946;2024-01-27T15:40:59;7.70;99.90
4615;DHT22;2320;51.362;6.946;2024-01-27T15:43:26;7.70;99.90
4615;DHT22;2320;51.362;6.946;2024-01-27T15:45:52;7.60;99.90
4615;DHT22;2320;51.362;6.946;2024-01-27T15:48:18;7.50;99.90
4615;DHT22;2320;51.362;6.946;2024-01-27T15:50:43;7.40;99.90
4615;DHT22;2320;51.362;6.946;2024-01-27T15:53:10;7.30;99.90
4615;DHT22;2320;51.362;6.946;2024-01-27T15:55:35;7.30;99.90
4615;DHT22;2320;51.362;6.946;2024-01-27T15:58:01;7.20;99.90
4615;DHT22;2320;51.362;6.946;2024-01-27T16:00:28;7.10;99.90
4615;DHT22;2320;51.362;6.946;2024-01-27T16:02:54;7.00;99.90
4615;DHT22;2320;51.362;6.946;2024-01-27T16:05:20;6.90;99.90
4615;DHT22;2320;51.362;6.946;2024-01-27T16:07:45;6.70;99.90
4615;DHT22;2320;51.362;6.946;2024-01-27T16:10:11;6.70;99.90